Time;durP1;ratioP1;P1;durP2;ratioP2;P2;SDS_P1;SDS_P2;PMS_P1;PMS_P2;Temp;Humidity;BMP_temperature;BMP_pressure;BME280_temperature;BME280_humidity;BME280_pressure;Samples;Min_cycle;Max_cycle;Signal;HPM_P1;HPM_P2
2021/01/28 00:01:59;;;;;;;;;;;23.20;37.50;;;;;;1534888;76;787;-60
2021/01/28 00:04:00;;;;;;;;;;;23.20;37.50;;;;;;1528421;77;782;-61
2021/01/28 00:06:03;;;;;;;;;;;23.20;37.60;;;;;;1526277;76;629;-62
2021/01/28 00:08:05;;;;;;;;;;;23.20;37.40;;;;;;1528677;76;1109;-61
2021/01/28 00:10:07;;;;;;;;;;;23.20;37.40;;;;;;1520548;76;742;-62
2021/01/28 00:12:09;;;;;;;;;;;23.20;37.40;;;;;;1534504;77;705;-61
2021/01/28 00:14:11;;;;;;;;;;;23.20;37.40;;;;;;1533662;76;725;-61
2021/01/28 00:16:13;;;;;;;;;;;23.20;37.40;;;;;;1534236;77;712;-61
2021/01/28 00:18:15;;;;;;;;;;;23.30;37.50;;;;;;1529792;76;1957;-60
2021/01/28 00:20:20;;;;;;;;;;;23.20;37.40;;;;;;1521848;76;1070;-61
2021/01/28 00:22:22;;;;;;;;;;;23.20;37.40;;;;;;1531888;76;744;-60
2021/01/28 00:24:24;;;;;;;;;;;22.80;37.50;;;;;;1529345;76;813;-60
2021/01/28 00:26:26;;;;;;;;;;;23.10;37.90;;;;;;1535880;77;691;-60
2021/01/28 00:28:27;;;;;;;;;;;23.20;37.90;;;;;;1534780;76;1151;-60
2021/01/28 00:30:30;;;;;;;;;;;23.20;37.80;;;;;;1538173;76;752;-61
2021/01/28 00:32:32;;;;;;;;;;;23.20;38.00;;;;;;1523130;76;758;-62
2021/01/28 00:34:34;;;;;;;;;;;23.20;37.90;;;;;;1533992;77;608;-61
2021/01/28 00:36:36;;;;;;;;;;;23.20;38.00;;;;;;1520339;76;807;-62
2021/01/28 00:38:38;;;;;;;;;;;23.20;38.10;;;;;;1522302;76;1955;-61
2021/01/28 00:40:40;;;;;;;;;;;23.20;38.10;;;;;;1523575;76;725;-62
2021/01/28 00:42:42;;;;;;;;;;;23.10;38.20;;;;;;1522688;76;692;-62
2021/01/28 00:44:44;;;;;;;;;;;23.10;38.20;;;;;;1529045;76;737;-61
2021/01/28 00:46:46;;;;;;;;;;;23.20;38.20;;;;;;1538031;76;724;-62
2021/01/28 00:48:48;;;;;;;;;;;23.20;38.20;;;;;;1525379;77;1140;-61
2021/01/28 00:50:51;;;;;;;;;;;23.20;38.30;;;;;;1537079;76;799;-61
2021/01/28 00:52:53;;;;;;;;;;;23.20;38.20;;;;;;1537460;76;742;-61
2021/01/28 00:54:54;;;;;;;;;;;23.20;38.30;;;;;;1537766;76;726;-61
2021/01/28 00:56:56;;;;;;;;;;;23.20;38.30;;;;;;1524704;76;772;-60
2021/01/28 00:58:58;;;;;;;;;;;23.20;38.20;;;;;;1528862;76;1937;-60
2021/01/28 01:01:01;;;;;;;;;;;23.20;38.20;;;;;;1533602;77;724;-61
2021/01/28 01:03:03;;;;;;;;;;;23.20;38.10;;;;;;1532972;76;734;-60
2021/01/28 01:05:05;;;;;;;;;;;23.20;38.20;;;;;;1537714;76;791;-59
2021/01/28 01:07:07;;;;;;;;;;;23.20;38.30;;;;;;1536333;76;747;-61
2021/01/28 01:09:09;;;;;;;;;;;23.20;38.30;;;;;;1531276;76;1157;-60
2021/01/28 01:11:11;;;;;;;;;;;23.20;38.30;;;;;;1531176;76;708;-60
2021/01/28 01:13:14;;;;;;;;;;;23.20;38.30;;;;;;1533471;76;696;-60
2021/01/28 01:15:16;;;;;;;;;;;23.20;38.20;;;;;;1526460;76;666;-60
2021/01/28 01:17:18;;;;;;;;;;;23.20;38.30;;;;;;1530245;76;1117;-60
2021/01/28 01:19:20;;;;;;;;;;;23.20;38.30;;;;;;1538570;76;1933;-59
2021/01/28 01:21:22;;;;;;;;;;;23.20;38.20;;;;;;1548953;76;906;-59
2021/01/28 01:23:24;;;;;;;;;;;23.20;38.10;;;;;;1517984;76;795;-60
2021/01/28 01:25:26;;;;;;;;;;;23.20;38.20;;;;;;1524378;76;771;-60
2021/01/28 01:27:27;;;;;;;;;;;23.20;38.20;;;;;;1546116;76;1166;-61
2021/01/28 01:29:29;;;;;;;;;;;23.20;38.20;;;;;;1538631;76;758;-62
2021/01/28 01:31:31;;;;;;;;;;;23.20;38.10;;;;;;1535886;76;707;-61
2021/01/28 01:33:33;;;;;;;;;;;23.20;38.10;;;;;;1537588;76;791;-61
2021/01/28 01:35:35;;;;;;;;;;;23.20;38.10;;;;;;1534985;76;803;-61
2021/01/28 01:37:37;;;;;;;;;;;23.20;38.10;;;;;;1515591;76;1264;-61
2021/01/28 01:39:39;;;;;;;;;;;23.20;38.00;;;;;;1533196;76;1925;-62
2021/01/28 01:41:40;;;;;;;;;;;23.30;38.10;;;;;;1529357;76;660;-61
2021/01/28 01:43:42;;;;;;;;;;;23.20;37.90;;;;;;1531214;76;715;-62
2021/01/28 01:45:46;;;;;;;;;;;23.30;38.00;;;;;;1532208;76;734;-60
2021/01/28 01:47:48;;;;;;;;;;;23.30;38.00;;;;;;1535295;76;1135;-60
2021/01/28 01:49:50;;;;;;;;;;;23.30;38.00;;;;;;1538367;76;744;-60
2021/01/28 01:51:52;;;;;;;;;;;23.30;38.10;;;;;;1529548;76;669;-59
2021/01/28 01:53:54;;;;;;;;;;;23.30;38.00;;;;;;1533963;76;667;-59
2021/01/28 01:55:58;;;;;;;;;;;23.20;38.00;;;;;;1535453;76;668;-59
2021/01/28 01:58:01;;;;;;;;;;;23.20;37.90;;;;;;1532369;76;1950;-60
2021/01/28 02:00:07;;;;;;;;;;;23.20;37.90;;;;;;1543319;76;732;-59
2021/01/28 02:02:10;;;;;;;;;;;23.30;38.00;;;;;;1555756;76;1460;-60
2021/01/28 02:04:12;;;;;;;;;;;23.20;38.00;;;;;;1546559;75;838;-60
2021/01/28 02:06:15;;;;;;;;;;;23.20;37.90;;;;;;1542858;76;698;-61
2021/01/28 02:08:17;;;;;;;;;;;23.20;38.00;;;;;;1545233;76;1290;-61
2021/01/28 02:10:19;;;;;;;;;;;23.30;38.10;;;;;;1528718;76;715;-61
2021/01/28 02:12:21;;;;;;;;;;;23.30;38.10;;;;;;1529284;76;765;-61
2021/01/28 02:14:23;;;;;;;;;;;23.30;38.10;;;;;;1533257;76;1076;-60
2021/01/28 02:16:25;;;;;;;;;;;23.30;37.90;;;;;;1515291;77;729;-60
2021/01/28 02:18:27;;;;;;;;;;;23.30;38.00;;;;;;1556061;75;1920;-61
2021/01/28 02:20:30;;;;;;;;;;;23.30;38.00;;;;;;1527964;76;693;-62
2021/01/28 02:22:37;;;;;;;;;;;23.30;37.90;;;;;;1545470;75;1794;-63
2021/01/28 02:24:44;;;;;;;;;;;23.30;38.00;;;;;;1512941;78;1059;-61
2021/01/28 02:26:46;;;;;;;;;;;23.30;38.00;;;;;;1555379;75;765;-61
2021/01/28 02:28:48;;;;;;;;;;;23.40;38.00;;;;;;1512913;78;1224;-60
2021/01/28 02:30:51;;;;;;;;;;;23.30;38.10;;;;;;1517681;77;732;-60
2021/01/28 02:32:53;;;;;;;;;;;23.30;38.00;;;;;;1518524;77;710;-59
2021/01/28 02:34:55;;;;;;;;;;;23.30;37.90;;;;;;1517913;77;666;-60
2021/01/28 02:36:57;;;;;;;;;;;23.30;37.90;;;;;;1544088;75;657;-60
2021/01/28 02:38:59;;;;;;;;;;;23.30;37.90;;;;;;1531583;76;1938;-59
2021/01/28 02:41:00;;;;;;;;;;;23.30;37.90;;;;;;1527810;76;722;-61
2021/01/28 02:43:02;;;;;;;;;;;23.20;38.00;;;;;;1503100;77;805;-61
2021/01/28 02:45:05;;;;;;;;;;;23.20;38.00;;;;;;1504499;77;787;-61
2021/01/28 02:47:07;;;;;;;;;;;23.20;38.00;;;;;;1544296;75;712;-61
2021/01/28 02:49:08;;;;;;;;;;;23.30;38.00;;;;;;1525955;77;1162;-60
2021/01/28 02:51:11;;;;;;;;;;;23.30;38.00;;;;;;1548406;75;776;-60
2021/01/28 02:53:12;;;;;;;;;;;23.20;37.90;;;;;;1500925;77;713;-60
2021/01/28 02:55:15;;;;;;;;;;;23.30;37.80;;;;;;1547276;75;682;-60
2021/01/28 02:57:17;;;;;;;;;;;23.30;37.80;;;;;;1547583;75;1186;-60
2021/01/28 02:59:19;;;;;;;;;;;23.30;37.80;;;;;;1500790;77;1936;-60
2021/01/28 03:01:21;;;;;;;;;;;23.30;37.80;;;;;;1546082;75;741;-60
2021/01/28 03:03:23;;;;;;;;;;;23.30;37.80;;;;;;1528034;76;746;-61
2021/01/28 03:05:24;;;;;;;;;;;23.30;37.70;;;;;;1507631;77;717;-60
2021/01/28 03:07:26;;;;;;;;;;;23.30;37.70;;;;;;1546586;75;1161;-60
2021/01/28 03:09:28;;;;;;;;;;;23.30;37.70;;;;;;1528366;76;707;-60
2021/01/28 03:11:30;;;;;;;;;;;23.30;37.60;;;;;;1509037;77;719;-60
2021/01/28 03:13:32;;;;;;;;;;;23.20;37.50;;;;;;1543063;75;694;-60
2021/01/28 03:15:34;;;;;;;;;;;23.30;37.60;;;;;;1549107;75;694;-60
2021/01/28 03:17:36;;;;;;;;;;;23.20;37.50;;;;;;1504581;77;1156;-60
2021/01/28 03:19:38;;;;;;;;;;;23.30;37.50;;;;;;1549580;75;1937;-62
2021/01/28 03:21:40;;;;;;;;;;;23.30;37.50;;;;;;1548892;75;723;-62
2021/01/28 03:23:41;;;;;;;;;;;23.30;37.60;;;;;;1555483;75;735;-61
2021/01/28 03:25:43;;;;;;;;;;;23.30;37.60;;;;;;1506349;77;785;-61
2021/01/28 03:27:45;;;;;;;;;;;23.30;37.70;;;;;;1517708;77;1179;-60
2021/01/28 03:29:47;;;;;;;;;;;23.30;37.80;;;;;;1542423;75;714;-61
2021/01/28 03:31:49;;;;;;;;;;;23.30;37.80;;;;;;1504366;77;661;-61
2021/01/28 03:33:51;;;;;;;;;;;23.30;37.80;;;;;;1550117;75;752;-62
2021/01/28 03:35:53;;;;;;;;;;;23.30;37.80;;;;;;1548596;75;761;-61
2021/01/28 03:37:55;;;;;;;;;;;23.30;37.80;;;;;;1548470;75;1106;-63
2021/01/28 03:39:57;;;;;;;;;;;23.20;37.80;;;;;;1528212;76;1940;-62
2021/01/28 03:41:59;;;;;;;;;;;23.30;37.80;;;;;;1501468;77;686;-64
2021/01/28 03:44:00;;;;;;;;;;;23.30;37.80;;;;;;1501551;77;776;-62
2021/01/28 03:46:02;;;;;;;;;;;23.20;37.90;;;;;;1555826;75;780;-61
2021/01/28 03:48:04;;;;;;;;;;;23.20;38.10;;;;;;1553572;75;1174;-60
2021/01/28 03:50:07;;;;;;;;;;;23.10;38.20;;;;;;1507926;77;765;-60
2021/01/28 03:52:09;;;;;;;;;;;23.00;38.30;;;;;;1553269;75;782;-60
2021/01/28 03:54:10;;;;;;;;;;;22.90;38.40;;;;;;1551712;75;746;-60
2021/01/28 03:56:12;;;;;;;;;;;22.90;38.50;;;;;;1512017;77;716;-63
2021/01/28 03:58:14;;;;;;;;;;;22.90;38.60;;;;;;1544117;75;1178;-61
2021/01/28 04:00:17;;;;;;;;;;;22.90;38.50;;;;;;1549431;76;1935;-60
2021/01/28 04:02:19;;;;;;;;;;;22.90;38.70;;;;;;1549896;75;709;-62
2021/01/28 04:04:21;;;;;;;;;;;22.90;38.70;;;;;;1548831;75;673;-61
2021/01/28 04:06:23;;;;;;;;;;;22.90;38.70;;;;;;1552119;75;679;-61
2021/01/28 04:08:25;;;;;;;;;;;22.90;38.70;;;;;;1551217;76;1208;-61
2021/01/28 04:10:28;;;;;;;;;;;22.80;38.70;;;;;;1554838;76;757;-61
2021/01/28 04:12:30;;;;;;;;;;;22.80;38.90;;;;;;1500716;77;830;-61
2021/01/28 04:14:32;;;;;;;;;;;22.80;39.00;;;;;;1519733;77;793;-61
2021/01/28 04:16:33;;;;;;;;;;;22.70;39.00;;;;;;1511976;77;732;-62
2021/01/28 04:18:35;;;;;;;;;;;22.70;39.00;;;;;;1510207;77;1144;-61
2021/01/28 04:20:37;;;;;;;;;;;22.80;38.90;;;;;;1510764;77;1926;-62
2021/01/28 04:22:39;;;;;;;;;;;22.80;39.00;;;;;;1511118;77;720;-62
2021/01/28 04:24:41;;;;;;;;;;;22.70;39.00;;;;;;1505691;77;775;-60
2021/01/28 04:26:44;;;;;;;;;;;22.70;38.90;;;;;;1509554;77;756;-61
2021/01/28 04:28:46;;;;;;;;;;;22.70;39.00;;;;;;1527027;75;1158;-60
2021/01/28 04:30:47;;;;;;;;;;;22.70;39.50;;;;;;1543842;77;677;-60
2021/01/28 04:32:49;;;;;;;;;;;22.70;39.40;;;;;;1525899;75;731;-61
2021/01/28 04:34:51;;;;;;;;;;;22.80;39.50;;;;;;1543558;75;696;-61
2021/01/28 04:36:53;;;;;;;;;;;22.70;39.50;;;;;;1536861;75;765;-61
2021/01/28 04:38:55;;;;;;;;;;;22.80;39.70;;;;;;1543468;75;1954;-62
2021/01/28 04:41:05;;;;;;;;;;;22.80;39.80;;;;;;1541503;75;717;-62
2021/01/28 04:43:08;;;;;;;;;;;22.80;39.70;;;;;;1542198;75;739;-61
2021/01/28 04:45:10;;;;;;;;;;;22.70;39.50;;;;;;1540459;75;1589;-61
2021/01/28 04:47:16;;;;;;;;;;;22.80;39.50;;;;;;1540575;75;1150;-61
2021/01/28 04:49:18;;;;;;;;;;;22.80;39.70;;;;;;1540385;77;709;-60
2021/01/28 04:51:20;;;;;;;;;;;22.70;39.70;;;;;;1540713;75;678;-62
2021/01/28 04:53:23;;;;;;;;;;;22.80;39.60;;;;;;1534214;75;648;-62
2021/01/28 04:55:27;;;;;;;;;;;22.70;39.70;;;;;;1543095;76;673;-62
2021/01/28 04:57:29;;;;;;;;;;;22.80;39.70;;;;;;1538033;75;1972;-62
2021/01/28 04:59:34;;;;;;;;;;;22.80;39.60;;;;;;1542754;75;1924;-61
2021/01/28 05:01:36;;;;;;;;;;;22.80;40.00;;;;;;1540800;75;727;-61
2021/01/28 05:03:46;;;;;;;;;;;22.80;39.70;;;;;;1542300;75;748;-61
2021/01/28 05:05:49;;;;;;;;;;;22.80;39.90;;;;;;1541772;75;802;-62
2021/01/28 05:07:51;;;;;;;;;;;22.80;39.80;;;;;;1534000;75;1158;-62
2021/01/28 05:10:13;;;;;;;;;;;22.80;39.80;;;;;;1534418;76;707;-61
2021/01/28 05:12:17;;;;;;;;;;;22.80;39.90;;;;;;1547073;77;705;-61
2021/01/28 05:14:20;;;;;;;;;;;22.80;39.90;;;;;;1537346;75;1760;-61
2021/01/28 05:16:33;;;;;;;;;;;22.80;39.70;;;;;;1530512;75;1034;-62
2021/01/28 05:18:36;;;;;;;;;;;22.80;39.70;;;;;;1525755;76;1127;-61
2021/01/28 05:20:37;;;;;;;;;;;22.80;39.70;;;;;;1513685;77;1926;-61
2021/01/28 05:22:44;;;;;;;;;;;22.80;40.00;;;;;;1543087;77;946;-61
2021/01/28 05:24:45;;;;;;;;;;;22.80;40.10;;;;;;1551096;74;1658;-61
2021/01/28 05:26:47;;;;;;;;;;;22.90;40.10;;;;;;1555864;75;820;-61
2021/01/28 05:28:49;;;;;;;;;;;22.90;40.10;;;;;;1552289;75;1173;-61
2021/01/28 05:30:51;;;;;;;;;;;22.90;40.20;;;;;;1554602;75;772;-62
2021/01/28 05:32:52;;;;;;;;;;;22.90;40.00;;;;;;1547570;74;651;-61
2021/01/28 05:34:54;;;;;;;;;;;22.90;40.20;;;;;;1548390;76;706;-61
2021/01/28 05:36:58;;;;;;;;;;;22.90;40.20;;;;;;1546182;75;693;-61
2021/01/28 05:39:00;;;;;;;;;;;22.90;40.20;;;;;;1510354;77;1719;-61
2021/01/28 05:41:02;;;;;;;;;;;22.90;40.20;;;;;;1534603;77;1935;-61
2021/01/28 05:43:06;;;;;;;;;;;22.90;40.10;;;;;;1544308;75;709;-62
2021/01/28 05:45:12;;;;;;;;;;;22.90;40.20;;;;;;1543030;75;984;-61
2021/01/28 05:47:15;;;;;;;;;;;22.90;40.20;;;;;;1509988;77;1692;-61
2021/01/28 05:49:20;;;;;;;;;;;22.90;40.30;;;;;;1555210;75;1823;-60
2021/01/28 05:51:22;;;;;;;;;;;22.90;40.10;;;;;;1551427;75;653;-60
2021/01/28 05:53:24;;;;;;;;;;;22.90;40.00;;;;;;1507157;77;737;-61
2021/01/28 05:55:26;;;;;;;;;;;22.90;40.00;;;;;;1552943;76;730;-60
2021/01/28 05:57:29;;;;;;;;;;;22.90;40.10;;;;;;1542833;76;1182;-60
2021/01/28 05:59:48;;;;;;;;;;;22.90;40.10;;;;;;1496241;77;1929;-60
2021/01/28 06:01:54;;;;;;;;;;;23.00;40.20;;;;;;1551296;75;1798;-61
2021/01/28 06:04:10;;;;;;;;;;;23.00;40.10;;;;;;1507543;78;1465;-61
2021/01/28 06:06:20;;;;;;;;;;;22.90;40.00;;;;;;1538307;75;784;-60
2021/01/28 06:08:26;;;;;;;;;;;23.00;40.20;;;;;;1540910;76;1975;-61
2021/01/28 06:10:30;;;;;;;;;;;22.90;40.10;;;;;;1540627;76;701;-61
2021/01/28 06:12:39;;;;;;;;;;;22.90;40.00;;;;;;1534044;77;1828;-61
2021/01/28 06:14:51;;;;;;;;;;;22.90;40.00;;;;;;1542128;77;1802;-61
2021/01/28 06:17:10;;;;;;;;;;;23.00;40.10;;;;;;1539092;76;1240;-60
2021/01/28 06:19:25;;;;;;;;;;;23.00;40.10;;;;;;1474417;79;1150;-61
2021/01/28 06:21:38;;;;;;;;;;;22.90;40.20;;;;;;1486445;77;946;-61
2021/01/28 06:23:41;;;;;;;;;;;23.10;40.20;;;;;;1555656;75;727;-62
2021/01/28 06:25:51;;;;;;;;;;;23.00;40.10;;;;;;1529070;76;1400;-62
2021/01/28 06:27:54;;;;;;;;;;;23.00;40.00;;;;;;1512898;77;1971;-62
2021/01/28 06:30:16;;;;;;;;;;;23.00;40.10;;;;;;1542406;76;649;-62
2021/01/28 06:32:36;;;;;;;;;;;23.00;40.10;;;;;;1553509;75;1736;-61
2021/01/28 06:34:49;;;;;;;;;;;23.00;40.30;;;;;;1540537;76;760;-61
2021/01/28 06:36:58;;;;;;;;;;;23.00;40.10;;;;;;1547576;77;717;-60
2021/01/28 06:39:14;;;;;;;;;;;23.00;40.10;;;;;;1532216;76;1086;-62
2021/01/28 06:41:17;;;;;;;;;;;23.00;40.20;;;;;;1511863;78;1936;-61
2021/01/28 06:43:20;;;;;;;;;;;23.00;40.20;;;;;;1525876;76;936;-61
2021/01/28 06:45:24;;;;;;;;;;;23.00;40.20;;;;;;1523615;76;1823;-61
2021/01/28 06:47:33;;;;;;;;;;;23.00;40.20;;;;;;1502614;77;1132;-61
2021/01/28 06:49:37;;;;;;;;;;;23.00;40.20;;;;;;1546769;75;674;-61
2021/01/28 06:51:59;;;;;;;;;;;23.00;40.20;;;;;;1546088;76;779;-61
2021/01/28 06:54:03;;;;;;;;;;;23.00;40.10;;;;;;1504742;77;724;-62
2021/01/28 06:56:06;;;;;;;;;;;23.10;40.30;;;;;;1518147;78;774;-62
2021/01/28 06:58:26;;;;;;;;;;;23.00;40.20;;;;;;1530500;76;1134;-62
2021/01/28 07:00:39;;;;;;;;;;;23.10;40.20;;;;;;1545470;77;1924;-61
2021/01/28 07:02:48;;;;;;;;;;;23.00;40.10;;;;;;1547150;77;675;-63
2021/01/28 07:05:04;;;;;;;;;;;23.00;40.00;;;;;;1562519;75;1669;-62
2021/01/28 07:07:07;;;;;;;;;;;23.00;40.20;;;;;;1539534;76;1761;-62
2021/01/28 07:09:20;;;;;;;;;;;23.00;40.10;;;;;;1538961;75;1107;-61
2021/01/28 07:11:36;;;;;;;;;;;23.00;40.30;;;;;;1538371;77;886;-61
2021/01/28 07:13:38;;;;;;;;;;;23.00;40.10;;;;;;1538578;77;677;-61
2021/01/28 07:15:39;;;;;;;;;;;23.00;40.30;;;;;;1542897;77;748;-62
2021/01/28 07:17:47;;;;;;;;;;;23.00;40.20;;;;;;1542994;76;1161;-62
2021/01/28 07:19:54;;;;;;;;;;;23.10;40.30;;;;;;1542691;75;1901;-61
2021/01/28 07:21:56;;;;;;;;;;;23.10;40.20;;;;;;1546782;76;1694;-61
2021/01/28 07:24:05;;;;;;;;;;;23.00;40.10;;;;;;1547242;75;696;-62
2021/01/28 07:26:09;;;;;;;;;;;23.00;40.00;;;;;;1539629;75;706;-64
2021/01/28 07:28:22;;;;;;;;;;;23.00;40.20;;;;;;1552969;75;1204;-62
2021/01/28 07:30:37;;;;;;;;;;;23.00;40.20;;;;;;1554441;76;682;-62
2021/01/28 07:32:41;;;;;;;;;;;23.10;40.50;;;;;;1527331;76;753;-64
2021/01/28 07:34:43;;;;;;;;;;;23.00;40.10;;;;;;1542008;76;704;-62
2021/01/28 07:36:46;;;;;;;;;;;23.00;40.00;;;;;;1516999;76;826;-61
2021/01/28 07:38:48;;;;;;;;;;;23.10;40.20;;;;;;1526488;76;1162;-62
2021/01/28 07:40:57;;;;;;;;;;;23.10;40.50;;;;;;1554514;75;1939;-61
2021/01/28 07:43:02;;;;;;;;;;;23.10;40.60;;;;;;1548050;75;683;-62
2021/01/28 07:45:24;;;;;;;;;;;23.10;40.50;;;;;;1554853;75;787;-61
2021/01/28 07:47:33;;;;;;;;;;;23.10;40.20;;;;;;1560129;75;1168;-60
2021/01/28 07:49:38;;;;;;;;;;;23.10;39.70;;;;;;1563963;75;725;-60
2021/01/28 07:51:40;;;;;;;;;;;23.20;39.30;;;;;;1547047;75;728;-61
2021/01/28 07:53:47;;;;;;;;;;;23.30;39.00;;;;;;1552064;75;773;-61
2021/01/28 07:55:49;;;;;;;;;;;23.40;38.30;;;;;;1553081;75;1716;-60
2021/01/28 07:57:51;;;;;;;;;;;23.40;38.40;;;;;;1538690;76;1176;-60
2021/01/28 07:59:53;;;;;;;;;;;23.40;38.20;;;;;;1531846;76;700;-60
2021/01/28 08:01:57;;;;;;;;;;;23.30;38.10;;;;;;1547145;75;728;-60
2021/01/28 08:04:05;;;;;;;;;;;23.40;37.80;;;;;;1558534;75;732;-61
2021/01/28 08:06:09;;;;;;;;;;;23.40;37.70;;;;;;1512851;78;790;-61
2021/01/28 08:08:13;;;;;;;;;;;23.40;37.50;;;;;;1547991;75;1880;-61
2021/01/28 08:10:22;;;;;;;;;;;23.40;37.50;;;;;;1528325;76;689;-61
2021/01/28 08:12:25;;;;;;;;;;;23.40;37.50;;;;;;1549464;75;723;-60
2021/01/28 08:14:29;;;;;;;;;;;23.40;37.40;;;;;;1540102;75;1153;-60
2021/01/28 08:16:30;;;;;;;;;;;23.40;37.30;;;;;;1546012;75;698;-64
2021/01/28 08:18:36;;;;;;;;;;;23.40;37.10;;;;;;1548421;75;1139;-60
2021/01/28 08:20:37;;;;;;;;;;;23.30;36.90;;;;;;1546737;75;1931;-61
2021/01/28 08:22:40;;;;;;;;;;;23.30;36.70;;;;;;1548333;77;764;-61
2021/01/28 08:24:44;;;;;;;;;;;23.20;37.00;;;;;;1511679;77;1054;-60
2021/01/28 08:26:46;;;;;;;;;;;23.20;37.00;;;;;;1549236;76;1666;-61
2021/01/28 08:28:47;;;;;;;;;;;23.10;37.30;;;;;;1548458;75;1345;-62
2021/01/28 08:30:49;;;;;;;;;;;23.10;37.20;;;;;;1505513;77;713;-61
2021/01/28 08:32:55;;;;;;;;;;;23.10;37.30;;;;;;1540548;75;724;-60
2021/01/28 08:34:59;;;;;;;;;;;23.10;37.40;;;;;;1544802;75;716;-60
2021/01/28 08:37:02;;;;;;;;;;;23.10;37.60;;;;;;1514803;78;1691;-60
2021/01/28 08:39:05;;;;;;;;;;;23.10;37.60;;;;;;1546719;75;1094;-60
2021/01/28 08:41:09;;;;;;;;;;;23.10;37.50;;;;;;1542121;75;1933;-61
2021/01/28 08:43:12;;;;;;;;;;;23.10;37.40;;;;;;1532617;75;1667;-61
2021/01/28 08:45:19;;;;;;;;;;;23.10;37.40;;;;;;1528155;76;718;-61
2021/01/28 08:47:24;;;;;;;;;;;23.00;37.30;;;;;;1501570;77;1102;-60
2021/01/28 08:49:26;;;;;;;;;;;23.10;37.30;;;;;;1546871;75;699;-60
2021/01/28 08:51:28;;;;;;;;;;;23.10;37.50;;;;;;1542740;75;714;-61
2021/01/28 08:53:30;;;;;;;;;;;23.10;37.70;;;;;;1544370;75;714;-61
2021/01/28 08:55:36;;;;;;;;;;;23.10;37.50;;;;;;1557158;75;699;-60
2021/01/28 08:57:38;;;;;;;;;;;23.20;37.10;;;;;;1510318;77;1312;-60
2021/01/28 08:59:47;;;;;;;;;;;23.20;36.90;;;;;;1540320;75;783;-60
2021/01/28 09:01:50;;;;;;;;;;;23.30;36.80;;;;;;1531538;76;1922;-60
2021/01/28 09:04:02;;;;;;;;;;;23.30;36.70;;;;;;1554834;75;708;-60
2021/01/28 09:06:04;;;;;;;;;;;23.20;36.60;;;;;;1541225;75;773;-61
2021/01/28 09:08:08;;;;;;;;;;;23.20;36.50;;;;;;1513041;77;1171;-61
2021/01/28 09:10:10;;;;;;;;;;;23.30;36.50;;;;;;1515457;77;766;-61
2021/01/28 09:12:29;;;;;;;;;;;23.30;36.40;;;;;;1544805;75;695;-59
2021/01/28 09:14:37;;;;;;;;;;;23.30;36.40;;;;;;1543419;75;711;-59
2021/01/28 09:16:35;;;;;;;;;;;23.30;36.20;;;;;;1544038;75;1538;-59
2021/01/28 09:18:38;;;;;;;;;;;23.30;36.30;;;;;;1534258;75;1139;-59
2021/01/28 09:20:40;;;;;;;;;;;23.30;36.20;;;;;;1545653;75;1939;-60
2021/01/28 09:22:42;;;;;;;;;;;23.30;36.00;;;;;;1533826;75;696;-59
2021/01/28 09:24:46;;;;;;;;;;;23.30;36.10;;;;;;1543900;76;747;-59
2021/01/28 09:26:48;;;;;;;;;;;23.30;36.00;;;;;;1537583;75;796;-60
2021/01/28 09:28:50;;;;;;;;;;;23.30;35.90;;;;;;1528503;76;1142;-59
2021/01/28 09:30:52;;;;;;;;;;;23.40;35.90;;;;;;1512766;78;726;-60
2021/01/28 09:32:54;;;;;;;;;;;23.40;35.90;;;;;;1549721;76;687;-59
2021/01/28 09:35:13;;;;;;;;;;;23.30;35.90;;;;;;1548912;75;656;-59
2021/01/28 09:37:15;;;;;;;;;;;23.40;35.70;;;;;;1506414;77;1178;-60
2021/01/28 09:39:21;;;;;;;;;;;23.30;35.80;;;;;;1553578;75;738;-59
2021/01/28 09:41:25;;;;;;;;;;;23.40;35.70;;;;;;1512938;78;1925;-60
2021/01/28 09:43:27;;;;;;;;;;;23.30;35.60;;;;;;1554690;75;1107;-60
2021/01/28 09:45:29;;;;;;;;;;;23.30;35.70;;;;;;1520249;76;1271;-60
2021/01/28 09:47:31;;;;;;;;;;;23.30;35.70;;;;;;1552153;75;1156;-61
2021/01/28 09:49:33;;;;;;;;;;;23.30;35.50;;;;;;1510669;78;776;-59
2021/01/28 09:51:35;;;;;;;;;;;23.30;35.60;;;;;;1518413;77;694;-60
2021/01/28 09:53:37;;;;;;;;;;;23.30;35.60;;;;;;1518282;77;745;-61
2021/01/28 09:55:41;;;;;;;;;;;23.30;35.50;;;;;;1518199;77;708;-60
2021/01/28 09:57:43;;;;;;;;;;;23.30;35.50;;;;;;1517316;77;1167;-61
2021/01/28 09:59:45;;;;;;;;;;;23.20;35.50;;;;;;1513297;77;810;-61
2021/01/28 10:01:47;;;;;;;;;;;23.30;35.50;;;;;;1518298;77;1937;-61
2021/01/28 10:03:49;;;;;;;;;;;23.30;35.50;;;;;;1519786;77;736;-61
2021/01/28 10:05:51;;;;;;;;;;;23.30;35.40;;;;;;1538403;75;724;-62
2021/01/28 10:07:53;;;;;;;;;;;23.30;35.40;;;;;;1540865;75;1119;-60
2021/01/28 10:09:54;;;;;;;;;;;23.20;35.20;;;;;;1538247;75;723;-60
2021/01/28 10:11:56;;;;;;;;;;;23.20;35.40;;;;;;1547306;76;720;-61
2021/01/28 10:13:59;;;;;;;;;;;23.20;35.40;;;;;;1544808;75;741;-61
2021/01/28 10:16:01;;;;;;;;;;;23.20;35.10;;;;;;1547042;76;740;-61
2021/01/28 10:18:03;;;;;;;;;;;23.20;35.40;;;;;;1548628;76;1165;-60
2021/01/28 10:20:05;;;;;;;;;;;23.20;35.30;;;;;;1525365;77;752;-60
2021/01/28 10:22:08;;;;;;;;;;;23.20;35.20;;;;;;1512833;78;1929;-60
2021/01/28 10:24:10;;;;;;;;;;;23.30;35.40;;;;;;1552419;76;780;-60
2021/01/28 10:26:12;;;;;;;;;;;23.20;35.30;;;;;;1549032;75;759;-61
2021/01/28 10:28:14;;;;;;;;;;;23.20;35.30;;;;;;1546350;75;1154;-61
2021/01/28 10:30:16;;;;;;;;;;;23.20;35.20;;;;;;1508521;78;668;-62
2021/01/28 10:32:18;;;;;;;;;;;23.20;35.20;;;;;;1548392;76;661;-61
2021/01/28 10:34:20;;;;;;;;;;;23.20;35.30;;;;;;1511763;77;682;-61
2021/01/28 10:36:22;;;;;;;;;;;23.20;35.20;;;;;;1553517;76;711;-61
2021/01/28 10:38:24;;;;;;;;;;;23.20;35.10;;;;;;1525305;76;1215;-62
2021/01/28 10:40:26;;;;;;;;;;;23.20;35.20;;;;;;1549381;75;812;-63
2021/01/28 10:42:31;;;;;;;;;;;23.20;35.20;;;;;;1549202;75;1931;-63
2021/01/28 10:44:33;;;;;;;;;;;23.20;35.20;;;;;;1548766;75;1045;-61
2021/01/28 10:46:35;;;;;;;;;;;23.20;35.20;;;;;;1549211;75;832;-62
2021/01/28 10:48:36;;;;;;;;;;;23.20;35.20;;;;;;1549052;75;1135;-64
2021/01/28 10:50:38;;;;;;;;;;;23.20;35.20;;;;;;1538199;76;716;-63
2021/01/28 10:52:40;;;;;;;;;;;23.20;35.20;;;;;;1505249;77;949;-62
2021/01/28 10:54:43;;;;;;;;;;;23.20;35.20;;;;;;1555264;76;724;-62
2021/01/28 10:56:45;;;;;;;;;;;23.20;35.30;;;;;;1526074;76;696;-61
2021/01/28 10:58:47;;;;;;;;;;;23.20;35.20;;;;;;1545092;76;1132;-62
2021/01/28 11:00:49;;;;;;;;;;;23.20;35.20;;;;;;1549439;75;707;-61
2021/01/28 11:02:51;;;;;;;;;;;23.20;35.20;;;;;;1548790;75;1939;-61
2021/01/28 11:04:52;;;;;;;;;;;23.20;35.30;;;;;;1551361;75;708;-62
2021/01/28 11:06:54;;;;;;;;;;;23.20;35.20;;;;;;1512635;78;707;-62
2021/01/28 11:08:56;;;;;;;;;;;23.20;35.20;;;;;;1518298;77;1133;-62
2021/01/28 11:10:58;;;;;;;;;;;23.20;35.20;;;;;;1517530;77;737;-61
2021/01/28 11:13:00;;;;;;;;;;;23.20;35.20;;;;;;1547398;75;715;-61
2021/01/28 11:15:02;;;;;;;;;;;23.20;35.20;;;;;;1545873;75;824;-60
2021/01/28 11:17:04;;;;;;;;;;;23.30;35.20;;;;;;1544178;75;761;-60
2021/01/28 11:19:07;;;;;;;;;;;23.20;35.10;;;;;;1536186;75;1115;-60
2021/01/28 11:21:09;;;;;;;;;;;23.20;35.20;;;;;;1540025;75;1896;-59
2021/01/28 11:23:11;;;;;;;;;;;23.20;35.20;;;;;;1547019;75;650;-60
2021/01/28 11:25:14;;;;;;;;;;;23.20;35.20;;;;;;1540087;75;758;-61
2021/01/28 11:27:16;;;;;;;;;;;23.20;35.20;;;;;;1551269;75;1164;-60
2021/01/28 11:29:22;;;;;;;;;;;23.20;35.30;;;;;;1536121;75;793;-60
2021/01/28 11:31:22;;;;;;;;;;;23.20;35.20;;;;;;1539802;75;1598;-61
2021/01/28 11:33:24;;;;;;;;;;;23.20;35.20;;;;;;1528834;75;746;-61
2021/01/28 11:35:26;;;;;;;;;;;23.20;35.20;;;;;;1528729;75;750;-62
2021/01/28 11:37:28;;;;;;;;;;;23.20;35.20;;;;;;1534057;75;1167;-60
2021/01/28 11:39:30;;;;;;;;;;;23.20;35.20;;;;;;1539794;75;650;-61
2021/01/28 11:41:32;;;;;;;;;;;23.20;35.20;;;;;;1541575;75;1918;-60
2021/01/28 11:43:34;;;;;;;;;;;23.20;35.20;;;;;;1547546;75;752;-60
2021/01/28 11:45:36;;;;;;;;;;;23.20;35.20;;;;;;1546383;75;763;-61
2021/01/28 11:47:38;;;;;;;;;;;23.20;35.20;;;;;;1541310;75;1246;-61
2021/01/28 11:49:40;;;;;;;;;;;23.20;35.20;;;;;;1534760;76;730;-60
2021/01/28 11:51:42;;;;;;;;;;;23.20;35.20;;;;;;1518477;76;742;-61
2021/01/28 11:53:44;;;;;;;;;;;23.20;35.20;;;;;;1514747;77;890;-61
2021/01/28 11:55:46;;;;;;;;;;;23.20;35.20;;;;;;1513368;77;747;-62
2021/01/28 11:57:47;;;;;;;;;;;23.20;35.20;;;;;;1511313;77;1134;-61
2021/01/28 11:59:49;;;;;;;;;;;23.20;35.20;;;;;;1514546;76;747;-60
2021/01/28 12:01:51;;;;;;;;;;;23.20;35.20;;;;;;1514939;77;1939;-62
2021/01/28 12:03:53;;;;;;;;;;;23.20;35.10;;;;;;1511296;77;740;-61
2021/01/28 12:05:55;;;;;;;;;;;23.20;35.10;;;;;;1539933;75;818;-60
2021/01/28 12:07:57;;;;;;;;;;;23.30;35.20;;;;;;1543735;75;1247;-60
2021/01/28 12:09:59;;;;;;;;;;;23.20;35.00;;;;;;1543065;75;791;-60
2021/01/28 12:12:01;;;;;;;;;;;23.20;35.00;;;;;;1541010;75;759;-60
2021/01/28 12:14:03;;;;;;;;;;;23.20;35.00;;;;;;1542378;75;1063;-61
2021/01/28 12:16:06;;;;;;;;;;;23.20;35.00;;;;;;1539737;75;785;-61
2021/01/28 12:18:08;;;;;;;;;;;23.20;35.00;;;;;;1542813;75;1171;-61